Time,TemperatureF,DewpointF,PressureIn,WindDirection,WindDirectionDegrees,WindSpeedMPH,WindSpeedGustMPH,Humidity,HourlyPrecipIn,Conditions,Clouds,dailyrainin,SoftwareType,DateUTC
2013-03-23 00:04:00,23.6,16.8,29.91,East,80,0.0,0.0,75,0.00,SCT,SKC,0.00,WeatherDisplay:10.37,2013-03-23 05:04:00,
2013-03-23 00:09:00,23.6,16.8,29.90,East,80,0.0,0.0,75,0.00,SCT,SKC,0.00,WeatherDisplay:10.37,2013-03-23 05:09:00,
2013-03-23 00:14:00,23.8,17.3,29.90,East,80,0.0,0.0,76,0.00,SCT,SKC,0.00,WeatherDisplay:10.37,2013-03-23 05:14:00,
2013-03-23 00:19:00,23.9,17.1,29.90,East,80,0.0,0.0,75,0.00,SCT,SKC,0.00,WeatherDisplay:10.37,2013-03-23 05:19:00,
2013-03-23 00:25:00,23.9,17.4,29.90,East,80,0.0,0.0,76,0.00,OVC,SKC,0.00,WeatherDisplay:10.37,2013-03-23 05:25:00,
2013-03-23 00:30:00,24.0,17.5,29.89,East,80,0.0,0.0,76,0.00,OVC,SKC,0.00,WeatherDisplay:10.37,2013-03-23 05:30:00,
2013-03-23 00:35:00,24.0,17.5,29.89,East,80,0.0,0.0,76,0.00,OVC,SKC,0.00,WeatherDisplay:10.37,2013-03-23 05:35:00,
2013-03-23 00:40:00,24.0,17.5,29.89,East,80,0.0,0.0,76,0.00,OVC,SKC,0.00,WeatherDisplay:10.37,2013-03-23 05:40:00,
2013-03-23 00:45:00,24.0,17.5,29.89,East,80,0.0,0.0,76,0.00,OVC,SKC,0.00,WeatherDisplay:10.37,2013-03-23 05:45:00,
2013-03-23 00:50:00,23.8,17.3,29.89,East,80,0.0,0.0,76,0.00,OVC,SKC,0.00,WeatherDisplay:10.37,2013-03-23 05:50:00,
2013-03-23 00:55:00,23.5,17.0,29.90,East,80,0.0,0.0,76,0.00,OVC,SKC,0.00,WeatherDisplay:10.37,2013-03-23 05:55:00,
2013-03-23 01:00:00,23.0,16.6,29.90,East,80,0.0,0.0,76,0.00,OVC,SKC,0.00,WeatherDisplay:10.37,2013-03-23 06:00:00,
2013-03-23 01:05:00,22.7,16.3,29.90,East,80,0.0,0.0,76,0.00,BKN,SKC,0.00,WeatherDisplay:10.37,2013-03-23 06:05:00,
2013-03-23 01:10:00,21.8,15.4,29.90,East,80,0.0,0.0,76,0.00,BKN,SKC,0.00,WeatherDisplay:10.37,2013-03-23 06:10:00,
2013-03-23 01:15:00,21.3,14.6,29.89,East,80,0.0,0.0,75,0.00,BKN,SKC,0.00,WeatherDisplay:10.37,2013-03-23 06:15:00,
2013-03-23 01:20:00,21.2,14.8,29.89,East,80,0.0,0.0,76,0.00,BKN,SKC,0.00,WeatherDisplay:10.37,2013-03-23 06:20:00,
2013-03-23 01:25:00,21.3,14.9,29.89,East,80,0.0,0.0,76,0.00,CLR,SKC,0.00,WeatherDisplay:10.37,2013-03-23 06:25:00,
2013-03-23 01:30:00,21.4,15.0,29.88,East,80,0.0,0.0,76,0.00,CLR,SKC,0.00,WeatherDisplay:10.37,2013-03-23 06:30:00,
2013-03-23 01:35:00,21.5,15.1,29.89,East,80,0.0,0.0,76,0.00,CLR,SKC,0.00,WeatherDisplay:10.37,2013-03-23 06:35:00,
2013-03-23 01:40:00,21.6,15.2,29.88,East,80,0.0,0.0,76,0.00,CLR,SKC,0.00,WeatherDisplay:10.37,2013-03-23 06:40:00,
2013-03-23 01:45:00,21.7,15.3,29.89,East,80,0.0,0.0,76,0.00,CLR,SKC,0.00,WeatherDisplay:10.37,2013-03-23 06:45:00,
2013-03-23 01:50:00,21.5,15.1,29.88,East,80,0.0,0.0,76,0.00,CLR,SKC,0.00,WeatherDisplay:10.37,2013-03-23 06:50:00,
2013-03-23 01:55:00,21.3,14.9,29.88,East,80,0.0,0.0,76,0.00,CLR,SKC,0.00,WeatherDisplay:10.37,2013-03-23 06:55:00,
2013-03-23 02:00:00,21.1,14.7,29.88,East,80,0.0,0.0,76,0.00,CLR,SKC,0.00,WeatherDisplay:10.37,2013-03-23 07:00:00,
2013-03-23 02:05:00,20.9,14.5,29.88,East,80,0.0,1.1,76,0.00,CLR,SKC,0.00,WeatherDisplay:10.37,2013-03-23 07:05:00,
2013-03-23 02:10:00,20.8,14.4,29.88,East,80,0.0,0.0,76,0.00,CLR,SKC,0.00,WeatherDisplay:10.37,2013-03-23 07:10:00,
2013-03-23 02:15:00,20.7,14.3,29.87,East,80,0.0,1.1,76,0.00,CLR,SKC,0.00,WeatherDisplay:10.37,2013-03-23 07:15:00,
2013-03-23 02:20:00,20.6,14.2,29.87,East,80,0.0,1.0,76,0.00,CLR,SKC,0.00,WeatherDisplay:10.37,2013-03-23 07:20:00,
2013-03-23 02:25:00,20.4,14.0,29.86,East,80,0.0,0.0,76,0.00,CLR,SKC,0.00,WeatherDisplay:10.37,2013-03-23 07:25:00,
2013-03-23 02:30:00,20.2,13.8,29.87,East,80,0.0,0.0,76,0.00,CLR,SKC,0.00,WeatherDisplay:10.37,2013-03-23 07:30:00,
2013-03-23 02:35:00,19.9,13.6,29.87,East,80,0.0,0.0,76,0.00,CLR,SKC,0.00,WeatherDisplay:10.37,2013-03-23 07:35:00,
2013-03-23 02:40:00,19.7,13.7,29.87,East,80,0.0,0.0,77,0.00,CLR,SKC,0.00,WeatherDisplay:10.37,2013-03-23 07:40:00,
2013-03-23 02:45:00,19.5,13.5,29.88,East,80,2.0,3.5,77,0.00,CLR,SKC,0.00,WeatherDisplay:10.37,2013-03-23 07:45:00,
2013-03-23 02:50:00,18.3,12.0,29.88,East,80,0.0,1.1,76,0.00,CLR,SKC,0.00,WeatherDisplay:10.37,2013-03-23 07:50:00,
2013-03-23 02:55:00,17.8,11.5,29.87,East,80,1.0,2.3,76,0.00,CLR,SKC,0.00,WeatherDisplay:10.37,2013-03-23 07:55:00,
2013-03-23 03:00:00,17.9,11.9,29.87,East,80,0.0,1.0,77,0.00,CLR,SKC,0.00,WeatherDisplay:10.37,2013-03-23 08:00:00,
2013-03-23 03:05:00,18.0,12.0,29.88,East,80,0.0,2.3,77,0.00,CLR,SKC,0.00,WeatherDisplay:10.37,2013-03-23 08:05:00,
2013-03-23 03:10:00,17.6,11.6,29.89,East,80,1.9,3.0,77,0.00,CLR,SKC,0.00,WeatherDisplay:10.37,2013-03-23 08:10:00,
2013-03-23 03:15:00,17.2,11.2,29.89,East,80,1.9,3.5,77,0.00,CLR,SKC,0.00,WeatherDisplay:10.37,2013-03-23 08:15:00,
2013-03-23 03:20:00,16.5,10.5,29.90,East,80,2.1,3.5,77,0.00,CLR,SKC,0.00,WeatherDisplay:10.37,2013-03-23 08:20:00,
2013-03-23 03:25:00,15.9,10.0,29.90,East,80,0.0,2.3,77,0.00,CLR,SKC,0.00,WeatherDisplay:10.37,2013-03-23 08:25:00,
2013-03-23 03:30:00,16.2,10.3,29.90,East,80,0.3,2.3,77,0.00,CLR,SKC,0.00,WeatherDisplay:10.37,2013-03-23 08:30:00,
2013-03-23 03:35:00,16.3,10.4,29.90,East,80,0.0,0.0,77,0.00,CLR,SKC,0.00,WeatherDisplay:10.37,2013-03-23 08:35:00,
2013-03-23 03:40:00,16.8,10.8,29.90,East,80,1.2,2.3,77,0.00,CLR,SKC,0.00,WeatherDisplay:10.37,2013-03-23 08:40:00,
2013-03-23 03:45:00,16.8,10.8,29.90,East,80,0.0,0.0,77,0.00,CLR,SKC,0.00,WeatherDisplay:10.37,2013-03-23 08:45:00,
2013-03-23 03:50:00,17.1,11.1,29.90,East,80,0.8,1.1,77,0.00,CLR,SKC,0.00,WeatherDisplay:10.37,2013-03-23 08:50:00,
2013-03-23 03:55:00,17.5,11.5,29.91,East,80,2.0,3.5,77,0.00,CLR,SKC,0.00,WeatherDisplay:10.37,2013-03-23 08:55:00,
2013-03-23 04:00:00,17.1,11.1,29.91,East,80,1.4,2.3,77,0.00,CLR,SKC,0.00,WeatherDisplay:10.37,2013-03-23 09:00:00,
2013-03-23 04:05:00,16.7,10.7,29.92,East,80,2.1,3.0,77,0.00,CLR,SKC,0.00,WeatherDisplay:10.37,2013-03-23 09:05:00,
2013-03-23 04:10:00,16.0,10.1,29.92,East,80,3.0,4.6,77,0.00,CLR,SKC,0.00,WeatherDisplay:10.37,2013-03-23 09:10:00,
2013-03-23 04:15:00,15.8,9.9,29.93,East,79,3.3,5.0,77,0.00,CLR,SKC,0.00,WeatherDisplay:10.37,2013-03-23 09:15:00,
2013-03-23 04:20:00,16.4,10.4,29.93,ENE,78,2.1,3.5,77,0.00,CLR,SKC,0.00,WeatherDisplay:10.37,2013-03-23 09:20:00,
2013-03-23 04:25:00,16.7,10.7,29.93,ENE,78,0.7,2.3,77,0.00,CLR,SKC,0.00,WeatherDisplay:10.37,2013-03-23 09:25:00,
2013-03-23 04:30:00,17.0,11.0,29.93,ENE,78,0.0,1.1,77,0.00,CLR,SKC,0.00,WeatherDisplay:10.37,2013-03-23 09:30:00,
2013-03-23 04:35:00,17.1,11.1,29.93,ENE,78,1.4,2.3,77,0.00,CLR,SKC,0.00,WeatherDisplay:10.37,2013-03-23 09:35:00,
2013-03-23 04:40:00,17.1,11.1,29.93,ENE,78,0.1,1.1,77,0.00,CLR,SKC,0.00,WeatherDisplay:10.37,2013-03-23 09:40:00,
2013-03-23 04:45:00,17.2,11.2,29.93,ENE,78,0.3,3.5,77,0.00,CLR,SKC,0.00,WeatherDisplay:10.37,2013-03-23 09:45:00,
2013-03-23 04:50:00,17.5,11.5,29.93,ENE,78,1.7,3.0,77,0.00,CLR,SKC,0.00,WeatherDisplay:10.37,2013-03-23 09:50:00,
2013-03-23 04:55:00,17.8,11.8,29.93,ENE,78,1.5,2.3,77,0.00,CLR,SKC,0.00,WeatherDisplay:10.37,2013-03-23 09:55:00,
2013-03-23 05:00:00,17.9,11.6,29.93,ENE,78,1.1,2.3,76,0.00,CLR,SKC,0.00,WeatherDisplay:10.37,2013-03-23 10:00:00,
2013-03-23 05:05:00,18.2,12.2,29.92,ENE,78,2.0,3.5,77,0.00,CLR,SKC,0.00,WeatherDisplay:10.37,2013-03-23 10:05:00,
2013-03-23 05:10:00,18.8,12.8,29.93,ENE,78,1.4,2.3,77,0.00,CLR,SKC,0.00,WeatherDisplay:10.37,2013-03-23 10:10:00,
2013-03-23 05:15:00,18.9,12.9,29.92,ENE,78,0.0,0.0,77,0.00,CLR,SKC,0.00,WeatherDisplay:10.37,2013-03-23 10:15:00,
2013-03-23 05:20:00,18.4,12.1,29.92,ENE,78,0.0,0.0,76,0.00,CLR,SKC,0.00,WeatherDisplay:10.37,2013-03-23 10:20:00,
2013-03-23 05:25:00,18.3,12.0,29.93,ENE,78,0.0,0.0,76,0.00,CLR,SKC,0.00,WeatherDisplay:10.37,2013-03-23 10:25:00,
2013-03-23 05:30:00,17.9,11.9,29.92,ENE,78,0.5,1.1,77,0.00,CLR,SKC,0.00,WeatherDisplay:10.37,2013-03-23 10:30:00,
2013-03-23 05:35:00,17.2,10.9,29.93,ENE,78,0.0,0.0,76,0.00,CLR,SKC,0.00,WeatherDisplay:10.37,2013-03-23 10:35:00,
2013-03-23 05:40:00,16.7,10.4,29.92,ENE,78,0.0,0.0,76,0.00,CLR,SKC,0.00,WeatherDisplay:10.37,2013-03-23 10:40:00,
2013-03-23 05:45:00,16.6,10.6,29.92,ENE,78,0.0,0.0,77,0.00,CLR,SKC,0.00,WeatherDisplay:10.37,2013-03-23 10:45:00,
2013-03-23 05:50:00,16.7,10.7,29.92,ENE,78,0.0,0.0,77,0.00,CLR,SKC,0.00,WeatherDisplay:10.37,2013-03-23 10:50:00,
2013-03-23 05:55:00,16.7,10.7,29.92,ENE,78,0.0,0.0,77,0.00,CLR,SKC,0.00,WeatherDisplay:10.37,2013-03-23 10:55:00,
2013-03-23 06:00:00,16.3,10.1,29.92,ENE,78,0.0,0.0,76,0.00,CLR,SKC,0.00,WeatherDisplay:10.37,2013-03-23 11:00:00,
2013-03-23 06:05:00,16.3,10.4,29.92,ENE,78,0.0,0.0,77,0.00,CLR,SKC,0.00,WeatherDisplay:10.37,2013-03-23 11:05:00,
2013-03-23 06:10:00,16.2,10.3,29.92,ENE,78,0.0,0.0,77,0.00,CLR,SKC,0.00,WeatherDisplay:10.37,2013-03-23 11:10:00,
2013-03-23 06:15:00,16.2,10.3,29.92,ENE,78,0.0,0.0,77,0.00,CLR,SKC,0.00,WeatherDisplay:10.37,2013-03-23 11:15:00,
2013-03-23 06:20:00,16.2,10.5,29.92,ENE,78,0.0,0.0,78,0.00,CLR,SKC,0.00,WeatherDisplay:10.37,2013-03-23 11:20:00,
2013-03-23 06:25:00,16.2,10.5,29.92,ENE,78,0.0,0.0,78,0.00,CLR,SKC,0.00,WeatherDisplay:10.37,2013-03-23 11:25:00,
2013-03-23 06:30:00,16.1,10.4,29.92,ENE,78,0.0,0.0,78,0.00,CLR,SKC,0.00,WeatherDisplay:10.37,2013-03-23 11:30:00,
2013-03-23 06:35:00,16.2,10.5,29.92,ENE,78,0.0,0.0,78,0.00,CLR,SKC,0.00,WeatherDisplay:10.37,2013-03-23 11:35:00,
2013-03-23 06:40:00,16.2,10.8,29.92,ENE,78,0.0,0.0,79,0.00,CLR,SKC,0.00,WeatherDisplay:10.37,2013-03-23 11:40:00,
2013-03-23 06:45:00,16.2,10.8,29.92,ENE,78,0.0,0.0,79,0.00,CLR,SKC,0.00,WeatherDisplay:10.37,2013-03-23 11:45:00,
2013-03-23 06:50:00,16.3,10.9,29.91,ENE,78,0.0,0.0,79,0.00,CLR,SKC,0.00,WeatherDisplay:10.37,2013-03-23 11:50:00,
2013-03-23 06:55:00,16.3,10.9,29.92,ENE,78,0.0,0.0,79,0.00,CLR,SKC,0.00,WeatherDisplay:10.37,2013-03-23 11:55:00,
2013-03-23 07:00:00,16.4,11.0,29.92,ENE,78,0.0,0.0,79,0.00,CLR,SKC,0.00,WeatherDisplay:10.37,2013-03-23 12:00:00,
2013-03-23 07:05:00,16.4,11.0,29.92,ENE,78,0.0,0.0,79,0.00,CLR,SKC,0.00,WeatherDisplay:10.37,2013-03-23 12:05:00,
2013-03-23 07:10:00,16.2,10.5,29.92,ENE,78,0.0,0.0,78,0.00,CLR,SKC,0.00,WeatherDisplay:10.37,2013-03-23 12:10:00,
2013-03-23 07:15:00,16.0,10.3,29.92,ENE,78,0.0,0.0,78,0.00,CLR,SKC,0.00,WeatherDisplay:10.37,2013-03-23 12:15:00,
2013-03-23 07:20:00,15.8,10.2,29.92,ENE,78,0.0,0.0,78,0.00,CLR,SKC,0.00,WeatherDisplay:10.37,2013-03-23 12:20:00,
2013-03-23 07:25:00,15.8,10.4,29.93,ENE,78,0.0,0.0,79,0.00,CLR,SKC,0.00,WeatherDisplay:10.37,2013-03-23 12:25:00,
2013-03-23 07:30:00,15.7,10.3,29.93,ENE,78,0.0,0.0,79,0.00,CLR,SKC,0.00,WeatherDisplay:10.37,2013-03-23 12:30:00,
2013-03-23 07:35:00,15.8,10.4,29.92,ENE,78,0.0,0.0,79,0.00,CLR,SKC,0.00,WeatherDisplay:10.37,2013-03-23 12:35:00,
2013-03-23 07:40:00,16.0,10.6,29.92,ENE,78,0.0,0.0,79,0.00,CLR,SKC,0.00,WeatherDisplay:10.37,2013-03-23 12:40:00,
2013-03-23 07:45:00,16.4,11.3,29.92,ENE,78,0.0,0.0,80,0.00,CLR,SKC,0.00,WeatherDisplay:10.37,2013-03-23 12:45:00,
2013-03-23 07:50:00,17.1,12.0,29.93,ENE,78,0.0,0.0,80,0.00,CLR,SKC,0.00,WeatherDisplay:10.37,2013-03-23 12:50:00,
2013-03-23 07:55:00,17.9,12.5,29.93,ENE,78,0.0,0.0,79,0.00,CLR,SKC,0.00,WeatherDisplay:10.37,2013-03-23 12:55:00,
2013-03-23 08:00:00,17.9,12.2,29.94,ENE,78,0.0,0.0,78,0.00,CLR,SKC,0.00,WeatherDisplay:10.37,2013-03-23 13:00:00,
2013-03-23 08:05:00,17.0,11.0,29.94,ENE,78,0.5,2.3,77,0.00,CLR,SKC,0.00,WeatherDisplay:10.37,2013-03-23 13:05:00,
2013-03-23 08:10:00,16.7,10.7,29.93,ENE,78,0.0,0.0,77,0.00,CLR,SKC,0.00,WeatherDisplay:10.37,2013-03-23 13:10:00,
2013-03-23 08:15:00,16.8,11.1,29.93,ENE,78,0.0,0.0,78,0.00,CLR,SKC,0.00,WeatherDisplay:10.37,2013-03-23 13:15:00,
2013-03-23 08:20:00,17.1,11.7,29.93,ENE,78,0.0,0.0,79,0.00,CLR,SKC,0.00,WeatherDisplay:10.37,2013-03-23 13:20:00,
2013-03-23 08:25:00,17.2,11.5,29.93,ENE,78,0.6,2.0,78,0.00,CLR,SKC,0.00,WeatherDisplay:10.37,2013-03-23 13:25:00,
2013-03-23 08:30:00,17.0,11.0,29.93,ENE,78,1.5,2.3,77,0.00,CLR,SKC,0.00,WeatherDisplay:10.37,2013-03-23 13:30:00,
2013-03-23 08:35:00,16.9,11.2,29.93,ENE,78,1.6,2.3,78,0.00,CLR,SKC,0.00,WeatherDisplay:10.37,2013-03-23 13:35:00,
2013-03-23 08:40:00,17.0,11.3,29.93,ENE,78,2.4,3.5,78,0.00,CLR,SKC,0.00,WeatherDisplay:10.37,2013-03-23 13:40:00,
2013-03-23 08:45:00,17.4,11.7,29.93,ENE,78,1.7,3.5,78,0.00,CLR,SKC,0.00,WeatherDisplay:10.37,2013-03-23 13:45:00,
2013-03-23 08:50:00,18.0,12.3,29.93,ENE,78,2.1,3.5,78,0.00,CLR,SKC,0.00,WeatherDisplay:10.37,2013-03-23 13:50:00,
2013-03-23 08:55:00,18.5,12.8,29.93,ENE,78,2.4,3.5,78,0.00,CLR,SKC,0.00,WeatherDisplay:10.37,2013-03-23 13:55:00,
2013-03-23 09:00:00,19.1,13.1,29.93,ENE,78,1.9,3.5,77,0.00,CLR,SKC,0.00,WeatherDisplay:10.37,2013-03-23 14:00:00,
2013-03-23 09:05:00,20.1,14.0,29.93,ENE,78,0.6,2.3,77,0.00,CLR,SKC,0.00,WeatherDisplay:10.37,2013-03-23 14:05:00,
2013-03-23 09:10:00,21.0,14.9,29.93,ENE,78,0.0,0.0,77,0.00,CLR,SKC,0.00,WeatherDisplay:10.37,2013-03-23 14:10:00,
2013-03-23 09:15:00,21.6,15.2,29.94,ENE,78,1.3,2.3,76,0.00,CLR,SKC,0.00,WeatherDisplay:10.37,2013-03-23 14:15:00,
2013-03-23 09:20:00,22.4,16.0,29.94,ENE,78,1.7,3.5,76,0.00,CLR,SKC,0.00,WeatherDisplay:10.37,2013-03-23 14:20:00,
2013-03-23 09:25:00,22.7,16.3,29.94,ENE,78,0.8,3.5,76,0.00,CLR,SKC,0.00,WeatherDisplay:10.37,2013-03-23 14:25:00,
2013-03-23 09:30:00,23.1,16.7,29.94,ENE,78,0.0,0.0,76,0.00,CLR,SKC,0.00,WeatherDisplay:10.37,2013-03-23 14:30:00,
2013-03-23 09:35:00,23.5,17.3,29.94,ENE,78,0.7,1.1,77,0.00,CLR,SKC,0.00,WeatherDisplay:10.37,2013-03-23 14:35:00,
2013-03-23 09:40:00,23.9,17.4,29.94,ENE,78,0.5,2.0,76,0.00,CLR,SKC,0.00,WeatherDisplay:10.37,2013-03-23 14:40:00,
2013-03-23 09:45:00,24.2,17.7,29.94,ENE,78,0.8,2.3,76,0.00,CLR,SKC,0.00,WeatherDisplay:10.37,2013-03-23 14:45:00,
2013-03-23 09:50:00,24.4,17.9,29.93,ENE,78,0.9,2.3,76,0.00,CLR,SKC,0.00,WeatherDisplay:10.37,2013-03-23 14:50:00,
2013-03-23 09:55:00,24.7,18.5,29.94,ENE,78,0.0,1.1,77,0.00,CLR,SKC,0.00,WeatherDisplay:10.37,2013-03-23 14:55:00,
2013-03-23 10:00:00,25.1,18.6,29.93,ENE,78,1.0,2.3,76,0.00,CLR,SKC,0.00,WeatherDisplay:10.37,2013-03-23 15:00:00,
2013-03-23 10:05:00,25.6,19.1,29.94,ENE,78,1.9,3.5,76,0.00,CLR,SKC,0.00,WeatherDisplay:10.37,2013-03-23 15:05:00,
2013-03-23 10:10:00,25.9,19.4,29.94,ENE,78,2.1,3.5,76,0.00,CLR,SKC,0.00,WeatherDisplay:10.37,2013-03-23 15:10:00,
2013-03-23 10:15:00,26.3,19.8,29.94,ENE,78,2.5,3.5,76,0.00,CLR,SKC,0.00,WeatherDisplay:10.37,2013-03-23 15:15:00,
2013-03-23 10:20:00,26.5,20.0,29.94,ENE,78,2.7,3.5,76,0.00,CLR,SKC,0.00,WeatherDisplay:10.37,2013-03-23 15:20:00,
2013-03-23 10:25:00,26.7,20.1,29.94,ENE,77,3.2,4.0,76,0.00,CLR,SKC,0.00,WeatherDisplay:10.37,2013-03-23 15:25:00,
2013-03-23 10:30:00,26.7,20.1,29.94,ENE,76,3.7,4.6,76,0.00,CLR,SKC,0.00,WeatherDisplay:10.37,2013-03-23 15:30:00,
2013-03-23 10:35:00,26.8,20.2,29.94,ENE,73,3.2,5.0,76,0.00,CLR,SKC,0.00,WeatherDisplay:10.37,2013-03-23 15:35:00,
2013-03-23 10:40:00,26.8,19.9,29.94,ENE,71,3.6,5.0,75,0.00,CLR,SKC,0.00,WeatherDisplay:10.37,2013-03-23 15:40:00,
2013-03-23 10:45:00,26.7,19.8,29.95,ENE,71,3.3,5.0,75,0.00,CLR,SKC,0.00,WeatherDisplay:10.37,2013-03-23 15:45:00,
2013-03-23 10:50:00,26.7,20.1,29.95,ENE,71,2.7,4.0,76,0.00,CLR,SKC,0.00,WeatherDisplay:10.37,2013-03-23 15:50:00,
2013-03-23 10:55:00,27.0,20.4,29.95,ENE,71,2.9,4.6,76,0.00,CLR,SKC,0.00,WeatherDisplay:10.37,2013-03-23 15:55:00,
2013-03-23 11:00:00,27.2,20.3,29.95,ENE,71,1.5,3.5,75,0.00,CLR,SKC,0.00,WeatherDisplay:10.37,2013-03-23 16:00:00,
2013-03-23 11:06:00,27.6,21.0,29.95,ENE,71,3.0,5.0,76,0.00,CLR,SKC,0.00,WeatherDisplay:10.37,2013-03-23 16:06:00,
2013-03-23 11:11:00,27.6,21.0,29.96,ENE,70,3.3,4.6,76,0.00,CLR,SKC,0.00,WeatherDisplay:10.37,2013-03-23 16:11:00,
2013-03-23 11:17:00,27.7,20.8,29.95,ENE,70,3.2,4.0,75,0.00,CLR,SKC,0.00,WeatherDisplay:10.37,2013-03-23 16:17:00,
2013-03-23 11:23:00,27.9,21.3,29.96,ENE,70,3.3,4.0,76,0.00,CLR,SKC,0.00,WeatherDisplay:10.37,2013-03-23 16:23:00,
2013-03-23 11:28:00,27.9,21.0,29.95,ENE,70,2.7,3.5,75,0.00,CLR,SKC,0.00,WeatherDisplay:10.37,2013-03-23 16:28:00,
2013-03-23 11:33:00,28.1,21.5,29.95,ENE,70,1.5,3.5,76,0.00,CLR,SKC,0.00,WeatherDisplay:10.37,2013-03-23 16:33:00,
2013-03-23 11:38:00,28.2,21.3,29.95,ENE,70,1.9,3.5,75,0.00,CLR,SKC,0.00,WeatherDisplay:10.37,2013-03-23 16:38:00,
2013-03-23 11:43:00,28.4,21.5,29.95,ENE,70,3.9,5.0,75,0.00,CLR,SKC,0.00,WeatherDisplay:10.37,2013-03-23 16:43:00,
2013-03-23 11:48:00,28.3,21.4,29.95,ENE,69,2.0,3.5,75,0.00,CLR,SKC,0.00,WeatherDisplay:10.37,2013-03-23 16:48:00,
2013-03-23 11:53:00,28.5,21.6,29.95,ENE,69,2.5,4.6,75,0.00,CLR,SKC,0.00,WeatherDisplay:10.37,2013-03-23 16:53:00,
2013-03-23 11:58:00,28.5,21.6,29.95,ENE,69,2.9,4.0,75,0.00,CLR,SKC,0.00,WeatherDisplay:10.37,2013-03-23 16:58:00,
2013-03-23 12:03:00,28.6,21.7,29.95,ENE,69,3.2,4.0,75,0.00,CLR,SKC,0.00,WeatherDisplay:10.37,2013-03-23 17:03:00,
2013-03-23 12:08:00,28.6,21.7,29.95,ENE,69,2.8,4.0,75,0.00,CLR,SKC,0.00,WeatherDisplay:10.37,2013-03-23 17:08:00,
2013-03-23 12:13:00,28.6,21.7,29.95,ENE,69,3.1,4.0,75,0.00,CLR,SKC,0.00,WeatherDisplay:10.37,2013-03-23 17:13:00,
2013-03-23 12:18:00,28.8,21.9,29.95,ENE,69,1.5,3.5,75,0.00,CLR,SKC,0.00,WeatherDisplay:10.37,2013-03-23 17:18:00,
2013-03-23 12:23:00,29.0,22.1,29.95,ENE,69,1.7,3.5,75,0.00,CLR,SKC,0.00,WeatherDisplay:10.37,2013-03-23 17:23:00,
2013-03-23 12:28:00,29.2,22.3,29.94,ENE,69,2.6,3.5,75,0.00,CLR,SKC,0.00,WeatherDisplay:10.37,2013-03-23 17:28:00,
2013-03-23 12:33:00,29.6,22.6,29.94,ENE,69,1.7,3.5,75,0.00,CLR,SKC,0.00,WeatherDisplay:10.37,2013-03-23 17:33:00,
2013-03-23 12:38:00,30.1,22.8,29.94,ENE,69,2.9,4.0,74,0.00,CLR,SKC,0.00,WeatherDisplay:10.37,2013-03-23 17:38:00,
2013-03-23 12:43:00,30.2,22.9,29.94,ENE,69,2.4,3.5,74,0.00,CLR,SKC,0.00,WeatherDisplay:10.37,2013-03-23 17:43:00,
2013-03-23 12:48:00,30.3,22.7,29.95,ENE,69,0.5,3.5,73,0.00,CLR,SKC,0.00,WeatherDisplay:10.37,2013-03-23 17:48:00,
2013-03-23 12:53:00,30.8,23.2,29.95,ENE,69,1.1,3.5,73,0.00,CLR,SKC,0.00,WeatherDisplay:10.37,2013-03-23 17:53:00,
2013-03-23 12:58:00,31.0,23.4,29.95,ENE,69,2.5,3.5,73,0.00,CLR,SKC,0.00,WeatherDisplay:10.37,2013-03-23 17:58:00,
2013-03-23 13:03:00,31.0,23.4,29.95,ENE,69,0.0,1.1,73,0.00,CLR,SKC,0.00,WeatherDisplay:10.37,2013-03-23 18:03:00,
2013-03-23 13:08:00,31.5,22.8,29.95,ENE,69,0.3,2.3,70,0.00,CLR,SKC,0.00,WeatherDisplay:10.37,2013-03-23 18:08:00,
2013-03-23 13:13:00,32.3,23.6,29.95,ENE,69,0.4,2.3,70,0.00,CLR,SKC,0.00,WeatherDisplay:10.37,2013-03-23 18:13:00,
2013-03-23 13:19:00,33.4,24.0,29.96,ENE,69,0.1,1.1,68,0.00,CLR,SKC,0.00,WeatherDisplay:10.37,2013-03-23 18:19:00,
2013-03-23 13:24:00,33.7,23.9,29.95,ENE,69,0.4,2.0,67,0.00,CLR,SKC,0.00,WeatherDisplay:10.37,2013-03-23 18:24:00,
2013-03-23 13:29:00,34.1,24.3,29.95,ENE,69,1.1,3.5,67,0.00,CLR,SKC,0.00,WeatherDisplay:10.37,2013-03-23 18:29:00,
2013-03-23 13:34:00,34.7,24.5,29.94,ENE,69,3.2,4.6,66,0.00,CLR,SKC,0.00,WeatherDisplay:10.37,2013-03-23 18:34:00,
2013-03-23 13:39:00,34.8,24.2,29.94,ENE,69,2.0,4.6,65,0.00,CLR,SKC,0.00,WeatherDisplay:10.37,2013-03-23 18:39:00,
2013-03-23 13:44:00,35.1,24.5,29.94,ENE,69,2.5,4.0,65,0.00,CLR,SKC,0.00,WeatherDisplay:10.37,2013-03-23 18:44:00,
2013-03-23 13:49:00,35.0,24.0,29.93,ENE,69,2.5,4.0,64,0.00,CLR,SKC,0.00,WeatherDisplay:10.37,2013-03-23 18:49:00,
2013-03-23 13:54:00,34.7,24.1,29.93,ENE,69,1.8,4.0,65,0.00,CLR,SKC,0.00,WeatherDisplay:10.37,2013-03-23 18:54:00,
2013-03-23 13:59:00,34.8,23.5,29.93,ENE,69,2.5,4.0,63,0.00,CLR,SKC,0.00,WeatherDisplay:10.37,2013-03-23 18:59:00,
2013-03-23 14:04:00,35.0,23.7,29.93,ENE,69,2.6,4.0,63,0.00,CLR,SKC,0.00,WeatherDisplay:10.37,2013-03-23 19:04:00,
2013-03-23 14:09:00,35.7,24.7,29.93,ENE,69,2.7,4.0,64,0.00,CLR,SKC,0.00,WeatherDisplay:10.37,2013-03-23 19:09:00,
2013-03-23 14:14:00,36.0,24.6,29.92,ENE,69,1.9,3.5,63,0.00,CLR,SKC,0.00,WeatherDisplay:10.37,2013-03-23 19:14:00,
2013-03-23 14:19:00,36.5,25.5,29.93,ENE,69,1.1,3.5,64,0.00,CLR,SKC,0.00,WeatherDisplay:10.37,2013-03-23 19:19:00,
2013-03-23 14:24:00,36.7,24.5,29.92,ENE,69,2.5,4.0,61,0.00,CLR,SKC,0.00,WeatherDisplay:10.37,2013-03-23 19:24:00,
2013-03-23 14:29:00,36.8,24.6,29.92,ENE,69,1.3,4.0,61,0.00,CLR,SKC,0.00,WeatherDisplay:10.37,2013-03-23 19:29:00,
2013-03-23 14:34:00,36.8,24.6,29.92,ENE,69,1.2,4.6,61,0.00,CLR,SKC,0.00,WeatherDisplay:10.37,2013-03-23 19:34:00,
2013-03-23 14:39:00,37.0,24.4,29.91,ENE,69,1.8,4.6,60,0.00,CLR,SKC,0.00,WeatherDisplay:10.37,2013-03-23 19:39:00,
2013-03-23 14:45:00,37.0,24.8,29.91,ENE,69,2.6,4.6,61,0.00,CLR,SKC,0.00,WeatherDisplay:10.37,2013-03-23 19:45:00,
2013-03-23 14:50:00,37.2,23.8,29.91,ENE,69,1.9,3.5,58,0.00,CLR,SKC,0.00,WeatherDisplay:10.37,2013-03-23 19:50:00,
2013-03-23 14:55:00,37.0,24.4,29.91,ENE,69,2.8,5.0,60,0.00,CLR,SKC,0.00,WeatherDisplay:10.37,2013-03-23 19:55:00,
2013-03-23 15:00:00,37.0,24.0,29.91,ENE,69,1.9,3.5,59,0.00,CLR,SKC,0.00,WeatherDisplay:10.37,2013-03-23 20:00:00,
2013-03-23 15:05:00,36.8,24.2,29.91,ENE,69,1.0,3.5,60,0.00,CLR,SKC,0.00,WeatherDisplay:10.37,2013-03-23 20:05:00,
2013-03-23 15:10:00,36.0,23.4,29.91,ENE,69,1.2,3.0,60,0.00,CLR,SKC,0.00,WeatherDisplay:10.37,2013-03-23 20:10:00,
2013-03-23 15:15:00,36.0,23.0,29.91,ENE,69,1.4,3.5,59,0.00,CLR,SKC,0.00,WeatherDisplay:10.37,2013-03-23 20:15:00,
2013-03-23 15:20:00,36.1,23.9,29.91,ENE,69,1.6,3.5,61,0.00,CLR,SKC,0.00,WeatherDisplay:10.37,2013-03-23 20:20:00,
2013-03-23 15:26:00,36.4,23.8,29.90,ENE,69,0.3,3.5,60,0.00,CLR,SKC,0.00,WeatherDisplay:10.37,2013-03-23 20:26:00,
2013-03-23 15:31:00,36.7,23.7,29.90,ENE,69,0.8,3.5,59,0.00,CLR,SKC,0.00,WeatherDisplay:10.37,2013-03-23 20:31:00,
2013-03-23 15:36:00,36.7,23.3,29.90,ENE,69,1.3,3.5,58,0.00,CLR,SKC,0.00,WeatherDisplay:10.37,2013-03-23 20:36:00,
2013-03-23 15:42:00,35.6,23.1,29.90,ENE,69,0.8,3.5,60,0.00,CLR,SKC,0.00,WeatherDisplay:10.37,2013-03-23 20:42:00,
2013-03-23 15:47:00,35.3,23.2,29.90,ENE,69,1.7,4.0,61,0.00,CLR,SKC,0.00,WeatherDisplay:10.37,2013-03-23 20:47:00,
2013-03-23 15:52:00,35.4,23.3,29.89,ENE,69,0.3,3.5,61,0.00,CLR,SKC,0.00,WeatherDisplay:10.37,2013-03-23 20:52:00,
2013-03-23 15:58:00,35.4,23.7,29.89,ENE,69,1.7,4.0,62,0.00,CLR,SKC,0.00,WeatherDisplay:10.37,2013-03-23 20:58:00,
2013-03-23 16:04:00,35.2,23.9,29.89,ENE,69,2.0,4.0,63,0.00,CLR,SKC,0.00,WeatherDisplay:10.37,2013-03-23 21:04:00,
2013-03-23 16:09:00,35.2,23.9,29.89,ENE,69,1.1,4.0,63,0.00,CLR,SKC,0.00,WeatherDisplay:10.37,2013-03-23 21:09:00,
2013-03-23 16:15:00,34.9,23.6,29.89,ENE,69,2.7,4.0,63,0.00,CLR,SKC,0.00,WeatherDisplay:10.37,2013-03-23 21:15:00,
2013-03-23 16:20:00,34.9,23.6,29.89,ENE,69,0.4,3.5,63,0.00,CLR,SKC,0.00,WeatherDisplay:10.37,2013-03-23 21:20:00,
2013-03-23 16:25:00,34.6,22.9,29.90,ENE,69,1.5,3.0,62,0.00,CLR,SKC,0.00,WeatherDisplay:10.37,2013-03-23 21:25:00,
2013-03-23 16:30:00,34.5,22.8,29.89,ENE,69,0.2,3.5,62,0.00,CLR,SKC,0.00,WeatherDisplay:10.37,2013-03-23 21:30:00,
2013-03-23 16:36:00,34.2,23.3,29.90,ENE,69,1.4,3.5,64,0.00,CLR,SKC,0.00,WeatherDisplay:10.37,2013-03-23 21:36:00,
2013-03-23 16:41:00,33.9,23.0,29.90,ENE,69,0.0,3.5,64,0.00,CLR,SKC,0.00,WeatherDisplay:10.37,2013-03-23 21:41:00,
2013-03-23 16:46:00,33.7,22.8,29.90,ENE,69,0.0,1.1,64,0.00,CLR,SKC,0.00,WeatherDisplay:10.37,2013-03-23 21:46:00,
2013-03-23 16:51:00,33.2,23.1,29.89,ENE,69,2.0,3.5,66,0.00,CLR,SKC,0.00,WeatherDisplay:10.37,2013-03-23 21:51:00,
2013-03-23 16:56:00,32.8,23.4,29.89,ENE,69,2.5,4.0,68,0.00,CLR,SKC,0.00,WeatherDisplay:10.37,2013-03-23 21:56:00,
2013-03-23 17:01:00,32.4,23.0,29.89,ENE,69,3.0,4.6,68,0.00,CLR,SKC,0.00,WeatherDisplay:10.37,2013-03-23 22:01:00,
2013-03-23 17:06:00,32.4,23.0,29.89,ENE,69,2.2,3.5,68,0.00,CLR,SKC,0.00,WeatherDisplay:10.37,2013-03-23 22:06:00,
2013-03-23 17:11:00,32.5,23.5,29.89,ENE,69,2.6,4.0,69,0.00,CLR,SKC,0.00,WeatherDisplay:10.37,2013-03-23 22:11:00,
2013-03-23 17:16:00,32.2,22.5,29.89,ENE,69,4.1,5.0,67,0.00,CLR,SKC,0.00,WeatherDisplay:10.37,2013-03-23 22:16:00,
2013-03-23 17:21:00,32.1,23.1,29.89,ENE,69,1.0,3.0,69,0.00,CLR,SKC,0.00,WeatherDisplay:10.37,2013-03-23 22:21:00,
2013-03-23 17:26:00,32.3,22.9,29.88,ENE,69,2.0,3.5,68,0.00,CLR,SKC,0.00,WeatherDisplay:10.37,2013-03-23 22:26:00,
2013-03-23 17:31:00,32.3,23.3,29.88,ENE,69,1.3,3.5,69,0.00,CLR,SKC,0.00,WeatherDisplay:10.37,2013-03-23 22:31:00,
2013-03-23 17:36:00,32.3,23.3,29.89,ENE,69,1.9,3.5,69,0.00,CLR,SKC,0.00,WeatherDisplay:10.37,2013-03-23 22:36:00,
2013-03-23 17:41:00,31.9,22.9,29.89,ENE,69,3.6,4.6,69,0.00,CLR,SKC,0.00,WeatherDisplay:10.37,2013-03-23 22:41:00,
2013-03-23 17:46:00,31.6,23.3,29.89,ENE,69,2.2,3.5,71,0.00,CLR,SKC,0.00,WeatherDisplay:10.37,2013-03-23 22:46:00,
2013-03-23 17:51:00,31.6,22.9,29.89,ENE,69,2.7,3.5,70,0.00,CLR,SKC,0.00,WeatherDisplay:10.37,2013-03-23 22:51:00,
2013-03-23 17:56:00,31.7,23.4,29.89,ENE,69,1.5,3.5,71,0.00,CLR,SKC,0.00,WeatherDisplay:10.37,2013-03-23 22:56:00,
2013-03-23 18:01:00,31.7,23.4,29.89,ENE,69,0.7,3.5,71,0.00,CLR,SKC,0.00,WeatherDisplay:10.37,2013-03-23 23:01:00,
2013-03-23 18:06:00,31.8,23.1,29.89,ENE,69,1.6,3.5,70,0.00,CLR,SKC,0.00,WeatherDisplay:10.37,2013-03-23 23:06:00,
2013-03-23 18:11:00,31.7,23.0,29.89,ENE,69,2.2,3.5,70,0.00,CLR,SKC,0.00,WeatherDisplay:10.37,2013-03-23 23:11:00,
2013-03-23 18:16:00,31.6,22.9,29.89,ENE,69,2.5,4.0,70,0.00,CLR,SKC,0.00,WeatherDisplay:10.37,2013-03-23 23:16:00,
2013-03-23 18:21:00,31.4,22.7,29.89,ENE,69,0.7,3.5,70,0.00,CLR,SKC,0.00,WeatherDisplay:10.37,2013-03-23 23:21:00,
2013-03-23 18:26:00,31.2,22.9,29.89,ENE,69,1.1,3.5,71,0.00,CLR,SKC,0.00,WeatherDisplay:10.37,2013-03-23 23:26:00,
2013-03-23 18:31:00,31.0,22.7,29.89,ENE,69,1.2,3.5,71,0.00,CLR,SKC,0.00,WeatherDisplay:10.37,2013-03-23 23:31:00,
2013-03-23 18:36:00,30.7,22.7,29.89,ENE,69,2.6,3.5,72,0.00,CLR,SKC,0.00,WeatherDisplay:10.37,2013-03-23 23:36:00,
2013-03-23 18:41:00,30.2,22.6,29.89,ENE,69,1.1,3.5,73,0.00,CLR,SKC,0.00,WeatherDisplay:10.37,2013-03-23 23:41:00,
2013-03-23 18:46:00,29.9,22.3,29.89,ENE,69,1.4,3.5,73,0.00,CLR,SKC,0.00,WeatherDisplay:10.37,2013-03-23 23:46:00,
2013-03-23 18:51:00,29.8,22.5,29.89,ENE,69,1.4,2.3,74,0.00,CLR,SKC,0.00,WeatherDisplay:10.37,2013-03-23 23:51:00,
2013-03-23 18:56:00,29.8,22.5,29.89,ENE,69,1.6,3.5,74,0.00,CLR,SKC,0.00,WeatherDisplay:10.37,2013-03-23 23:56:00,
2013-03-23 19:01:00,29.7,22.4,29.89,ENE,69,2.2,3.5,74,0.00,CLR,SKC,0.00,WeatherDisplay:10.37,2013-03-24 00:01:00,
2013-03-23 19:06:00,29.6,22.3,29.89,ENE,69,2.9,4.0,74,0.00,CLR,SKC,0.00,WeatherDisplay:10.37,2013-03-24 00:06:00,
2013-03-23 19:11:00,29.5,22.2,29.89,ENE,69,2.5,4.0,74,0.00,CLR,SKC,0.00,WeatherDisplay:10.37,2013-03-24 00:11:00,
2013-03-23 19:16:00,29.4,22.5,29.89,ENE,69,2.8,4.0,75,0.00,CLR,SKC,0.00,WeatherDisplay:10.37,2013-03-24 00:16:00,
2013-03-23 19:21:00,29.6,22.3,29.89,ENE,69,2.3,3.5,74,0.00,CLR,SKC,0.00,WeatherDisplay:10.37,2013-03-24 00:21:00,
2013-03-23 19:26:00,29.7,22.4,29.89,ENE,69,1.7,3.5,74,0.00,CLR,SKC,0.00,WeatherDisplay:10.37,2013-03-24 00:26:00,
2013-03-23 19:31:00,29.7,22.4,29.89,ENE,69,3.8,4.6,74,0.00,CLR,SKC,0.00,WeatherDisplay:10.37,2013-03-24 00:31:00,
2013-03-23 19:36:00,29.6,22.3,29.90,ENE,69,4.7,7.0,74,0.00,CLR,SKC,0.00,WeatherDisplay:10.37,2013-03-24 00:36:00,
2013-03-23 19:41:00,29.6,22.3,29.90,ENE,69,3.8,6.9,74,0.00,CLR,SKC,0.00,WeatherDisplay:10.37,2013-03-24 00:41:00,
2013-03-23 19:46:00,29.5,22.6,29.90,ENE,69,4.3,5.0,75,0.00,CLR,SKC,0.00,WeatherDisplay:10.37,2013-03-24 00:46:00,
2013-03-23 19:51:00,29.4,22.5,29.90,ENE,69,4.6,6.9,75,0.00,CLR,SKC,0.00,WeatherDisplay:10.37,2013-03-24 00:51:00,
2013-03-23 19:56:00,29.3,22.4,29.89,ENE,69,3.5,4.6,75,0.00,CLR,SKC,0.00,WeatherDisplay:10.37,2013-03-24 00:56:00,
2013-03-23 20:01:00,29.1,22.2,29.89,ENE,69,2.0,3.5,75,0.00,CLR,SKC,0.00,WeatherDisplay:10.37,2013-03-24 01:01:00,
2013-03-23 20:06:00,29.2,22.3,29.89,ENE,69,1.0,2.3,75,0.00,SCT,SKC,0.00,WeatherDisplay:10.37,2013-03-24 01:06:00,
2013-03-23 20:11:00,29.2,21.9,29.89,ENE,69,2.3,4.0,74,0.00,SCT,SKC,0.00,WeatherDisplay:10.37,2013-03-24 01:11:00,
2013-03-23 20:16:00,29.2,21.9,29.89,ENE,69,1.6,3.5,74,0.00,SCT,SKC,0.00,WeatherDisplay:10.37,2013-03-24 01:16:00,
2013-03-23 20:21:00,29.2,22.3,29.90,ENE,69,1.8,3.5,75,0.00,SCT,SKC,0.00,WeatherDisplay:10.37,2013-03-24 01:21:00,
2013-03-23 20:26:00,29.1,22.2,29.90,ENE,69,1.1,2.3,75,0.00,SCT,SKC,0.00,WeatherDisplay:10.37,2013-03-24 01:26:00,
2013-03-23 20:31:00,29.1,22.2,29.90,ENE,69,1.9,3.5,75,0.00,SCT,SKC,0.00,WeatherDisplay:10.37,2013-03-24 01:31:00,
2013-03-23 20:36:00,29.2,22.3,29.90,ENE,69,2.0,4.0,75,0.00,SCT,SKC,0.00,WeatherDisplay:10.37,2013-03-24 01:36:00,
2013-03-23 20:42:00,29.2,22.3,29.91,ENE,69,1.9,3.5,75,0.00,SCT,SKC,0.00,WeatherDisplay:10.37,2013-03-24 01:42:00,
2013-03-23 20:47:00,29.2,21.9,29.91,ENE,69,1.8,3.5,74,0.00,SCT,SKC,0.00,WeatherDisplay:10.37,2013-03-24 01:47:00,
2013-03-23 20:52:00,29.1,21.8,29.91,ENE,69,1.1,3.5,74,0.00,SCT,SKC,0.00,WeatherDisplay:10.37,2013-03-24 01:52:00,
2013-03-23 20:57:00,28.9,22.0,29.91,ENE,69,2.0,3.5,75,0.00,SCT,SKC,0.00,WeatherDisplay:10.37,2013-03-24 01:57:00,
2013-03-23 21:02:00,28.9,22.0,29.91,ENE,69,2.1,3.5,75,0.00,SCT,SKC,0.00,WeatherDisplay:10.37,2013-03-24 02:02:00,
2013-03-23 21:07:00,28.8,21.9,29.91,ENE,69,1.4,3.5,75,0.00,SCT,SKC,0.00,WeatherDisplay:10.37,2013-03-24 02:07:00,
2013-03-23 21:12:00,28.7,21.8,29.91,ENE,69,2.9,4.0,75,0.00,OVC,SKC,0.00,WeatherDisplay:10.37,2013-03-24 02:12:00,
2013-03-23 21:18:00,28.6,21.7,29.91,ENE,69,3.5,5.0,75,0.00,OVC,SKC,0.00,WeatherDisplay:10.37,2013-03-24 02:18:00,
2013-03-23 21:23:00,28.4,21.5,29.91,ENE,69,3.8,5.0,75,0.00,BKN,SKC,0.00,WeatherDisplay:10.37,2013-03-24 02:23:00,
2013-03-23 21:28:00,28.3,21.4,29.91,ENE,69,3.8,5.0,75,0.00,BKN,SKC,0.00,WeatherDisplay:10.37,2013-03-24 02:28:00,
2013-03-23 21:33:00,28.2,21.3,29.91,ENE,69,4.1,5.0,75,0.00,BKN,SKC,0.00,WeatherDisplay:10.37,2013-03-24 02:33:00,
2013-03-23 21:38:00,28.2,21.3,29.91,ENE,69,2.7,4.6,75,0.00,BKN,SKC,0.00,WeatherDisplay:10.37,2013-03-24 02:38:00,
2013-03-23 21:43:00,28.1,21.2,29.91,ENE,69,2.5,4.6,75,0.00,SCT,SKC,0.00,WeatherDisplay:10.37,2013-03-24 02:43:00,
2013-03-23 21:48:00,28.0,21.1,29.91,ENE,69,3.6,4.0,75,0.00,SCT,SKC,0.00,WeatherDisplay:10.37,2013-03-24 02:48:00,
2013-03-23 21:53:00,28.0,21.1,29.91,ENE,69,4.2,6.9,75,0.00,SCT,SKC,0.00,WeatherDisplay:10.37,2013-03-24 02:53:00,
2013-03-23 21:58:00,27.9,21.0,29.91,ENE,69,4.8,7.0,75,0.00,SCT,SKC,0.00,WeatherDisplay:10.37,2013-03-24 02:58:00,
2013-03-23 22:03:00,27.9,21.0,29.91,NE,40,4.4,5.0,75,0.00,SCT,SKC,0.00,WeatherDisplay:10.37,2013-03-24 03:03:00,
2013-03-23 22:08:00,27.7,20.8,29.91,NE,37,4.6,6.0,75,0.00,SCT,SKC,0.00,WeatherDisplay:10.37,2013-03-24 03:08:00,
2013-03-23 22:13:00,27.6,20.7,29.91,NNW,333,5.4,7.0,75,0.00,SCT,SKC,0.00,WeatherDisplay:10.37,2013-03-24 03:13:00,
2013-03-23 22:18:00,27.6,20.7,29.91,NNW,333,4.1,5.8,75,0.00,SCT,SKC,0.00,WeatherDisplay:10.37,2013-03-24 03:18:00,
2013-03-23 22:23:00,27.4,20.5,29.91,NNW,333,4.6,5.0,75,0.00,BKN,SKC,0.00,WeatherDisplay:10.37,2013-03-24 03:23:00,
2013-03-23 22:28:00,27.3,20.4,29.91,NNW,333,4.4,5.8,75,0.00,BKN,SKC,0.00,WeatherDisplay:10.37,2013-03-24 03:28:00,
2013-03-23 22:33:00,27.2,20.3,29.91,NNW,327,5.2,7.0,75,0.00,BKN,SKC,0.00,WeatherDisplay:10.37,2013-03-24 03:33:00,
2013-03-23 22:38:00,27.2,20.3,29.91,NNW,327,4.8,6.0,75,0.00,BKN,SKC,0.00,WeatherDisplay:10.37,2013-03-24 03:38:00,
2013-03-23 22:43:00,27.1,20.2,29.91,NNW,327,4.5,6.0,75,0.00,OVC,SKC,0.00,WeatherDisplay:10.37,2013-03-24 03:43:00,
2013-03-23 22:48:00,27.0,20.1,29.91,NNW,327,4.8,6.9,75,0.00,OVC,SKC,0.00,WeatherDisplay:10.37,2013-03-24 03:48:00,
2013-03-23 22:53:00,26.9,20.0,29.91,NNW,327,4.8,6.9,75,0.00,OVC,SKC,0.00,WeatherDisplay:10.37,2013-03-24 03:53:00,
2013-03-23 22:58:00,26.7,19.8,29.91,NNW,327,4.8,6.0,75,0.00,OVC,SKC,0.00,WeatherDisplay:10.37,2013-03-24 03:58:00,
2013-03-23 23:00:00,26.7,19.8,29.91,NNW,327,4.8,6.0,75,0.00,OVC,SKC,0.00,WeatherDisplay:10.37,2013-03-24 04:00:00,
2013-03-23 23:01:00,26.7,19.8,29.91,NNW,327,4.8,6.0,75,0.00,OVC,SKC,0.00,WeatherDisplay:10.37,2013-03-24 04:01:00,
2013-03-23 23:05:00,26.6,19.7,29.91,NNW,327,5.2,6.0,75,0.00,OVC,SKC,0.00,WeatherDisplay:10.37,2013-03-24 04:05:00,
2013-03-23 23:10:00,26.5,19.6,29.91,NNW,327,5.2,7.0,75,0.00,OVC,SKC,0.00,WeatherDisplay:10.37,2013-03-24 04:10:00,
2013-03-23 23:15:00,26.5,19.6,29.91,NNW,327,4.5,5.8,75,0.00,OVC,SKC,0.00,WeatherDisplay:10.37,2013-03-24 04:15:00,
2013-03-23 23:20:00,26.5,19.6,29.91,NNW,327,4.7,5.8,75,0.00,OVC,SKC,0.00,WeatherDisplay:10.37,2013-03-24 04:20:00,
2013-03-23 23:25:00,26.4,19.5,29.91,NNW,327,4.1,5.0,75,0.00,BKN,SKC,0.00,WeatherDisplay:10.37,2013-03-24 04:25:00,
2013-03-23 23:30:00,26.3,19.5,29.90,NNW,327,3.8,4.6,75,0.00,BKN,SKC,0.00,WeatherDisplay:10.37,2013-03-24 04:30:00,
2013-03-23 23:35:00,26.3,19.8,29.90,NNW,327,3.6,4.6,76,0.00,BKN,SKC,0.00,WeatherDisplay:10.37,2013-03-24 04:35:00,
2013-03-23 23:40:00,26.3,19.8,29.90,NNW,327,4.8,6.0,76,0.00,BKN,SKC,0.00,WeatherDisplay:10.37,2013-03-24 04:40:00,
2013-03-23 23:45:00,26.2,19.7,29.90,NNW,327,4.0,5.0,76,0.00,BKN,SKC,0.00,WeatherDisplay:10.37,2013-03-24 04:45:00,
2013-03-23 23:51:00,26.2,19.7,29.90,NNW,327,4.2,5.0,76,0.00,BKN,SKC,0.00,WeatherDisplay:10.37,2013-03-24 04:51:00,
2013-03-23 23:56:00,26.1,19.6,29.90,NNW,327,4.1,5.8,76,0.00,BKN,SKC,0.00,WeatherDisplay:10.37,2013-03-24 04:56:00,